createdAt,value
2022-11-15T00:00:58.447Z,98018.03
2022-11-15T00:03:27.189Z,98026.94
2022-11-15T00:05:54.478Z,98021.78
2022-11-15T00:08:22.055Z,98017.09
2022-11-15T00:11:00.745Z,98011.66
2022-11-15T00:13:27.965Z,98008.19
2022-11-15T00:15:58.075Z,98021.09
2022-11-15T00:18:25.696Z,98016.63
2022-11-15T00:20:52.852Z,98013.44
2022-11-15T00:23:20.140Z,98010.69
2022-11-15T00:25:47.365Z,98005.25
2022-11-15T00:28:14.437Z,98003.53
2022-11-15T00:30:41.503Z,98003.81
2022-11-15T00:33:09.627Z,98004.53
2022-11-15T00:35:37.024Z,98011.72
2022-11-15T00:38:04.084Z,98018.38
2022-11-15T00:40:31.513Z,98009.97
2022-11-15T00:42:58.640Z,98012.16
2022-11-15T00:45:25.866Z,98007.47
2022-11-15T00:47:53.424Z,98016.59
2022-11-15T00:50:20.463Z,98009.19
2022-11-15T00:52:47.755Z,98006.47
2022-11-15T00:55:19.286Z,98003.25
2022-11-15T00:57:47.398Z,97999.78
2022-11-15T01:00:15.033Z,97994.34
2022-11-15T01:02:42.142Z,97995.31
2022-11-15T01:05:09.508Z,97993.34
2022-11-15T01:07:37.081Z,97992.59
2022-11-15T01:10:06.002Z,97990.59
2022-11-15T01:12:33.296Z,97990.84
2022-11-15T01:15:00.482Z,97989.34
2022-11-15T01:17:28.118Z,97981.22
2022-11-15T01:19:55.127Z,97978.25
2022-11-15T01:22:22.204Z,97979.47
2022-11-15T01:24:52.095Z,97976.00
2022-11-15T01:27:19.275Z,97966.13
2022-11-15T01:29:46.449Z,97963.38
2022-11-15T01:32:13.836Z,97964.84
2022-11-15T01:34:40.898Z,97959.94
2022-11-15T01:37:08.237Z,97956.69
2022-11-15T01:39:35.329Z,97948.53
2022-11-15T01:42:02.667Z,97943.34
2022-11-15T01:44:39.906Z,97950.25
2022-11-15T01:47:42.162Z,97943.59
2022-11-15T01:50:11.175Z,97952.47
2022-11-15T01:52:39.111Z,97941.38
2022-11-15T01:55:13.057Z,97941.63
2022-11-15T01:57:42.098Z,97937.88
2022-11-15T02:00:09.759Z,97943.56
2022-11-15T02:02:38.784Z,97935.66
2022-11-15T02:05:06.025Z,97928.72
2022-11-15T02:07:33.739Z,97933.69
2022-11-15T02:10:05.727Z,97930.69
2022-11-15T02:12:32.899Z,97940.06
2022-11-15T02:15:00.531Z,97940.31
2022-11-15T02:18:05.512Z,97938.06
2022-11-15T02:20:41.707Z,97936.56
2022-11-15T02:23:50.078Z,97937.25
2022-11-15T02:26:28.985Z,97927.66
2022-11-15T02:29:06.326Z,97927.66
2022-11-15T02:31:45.624Z,97927.19
2022-11-15T02:34:16.751Z,97927.41
2022-11-15T02:36:50.747Z,97924.94
2022-11-15T02:39:26.822Z,97922.19
2022-11-15T02:42:03.792Z,97917.94
2022-11-15T02:44:38.453Z,97903.16
2022-11-15T02:47:13.907Z,97915.78
2022-11-15T02:49:44.841Z,97905.38
2022-11-15T02:52:16.957Z,97895.03
2022-11-15T02:54:44.313Z,97899.19
2022-11-15T02:57:17.272Z,97896.47
2022-11-15T02:59:57.962Z,97904.84
2022-11-15T03:03:02.629Z,97901.59
2022-11-15T03:05:54.847Z,97899.59
2022-11-15T03:08:40.929Z,97897.66
2022-11-15T03:11:14.735Z,97893.72
2022-11-15T03:14:07.474Z,97889.03
2022-11-15T03:17:09.616Z,97892.22
2022-11-15T03:19:43.147Z,97888.00
2022-11-15T03:22:13.151Z,97889.19
2022-11-15T03:24:40.421Z,97883.28
2022-11-15T03:27:09.024Z,97885.78
2022-11-15T03:29:40.122Z,97888.44
2022-11-15T03:32:12.765Z,97879.28
2022-11-15T03:34:44.744Z,97885.16
2022-11-15T03:37:14.450Z,97883.88
2022-11-15T03:39:42.107Z,97881.66
2022-11-15T03:42:18.904Z,97884.91
2022-11-15T03:45:09.803Z,97881.22
2022-11-15T03:47:43.225Z,97876.31
2022-11-15T03:50:18.976Z,97880.22
2022-11-15T03:52:47.759Z,97887.16
2022-11-15T03:55:17.923Z,97881.25
2022-11-15T03:57:45.443Z,97884.44
2022-11-15T04:00:12.831Z,97883.97
2022-11-15T04:02:39.902Z,97887.66
2022-11-15T04:05:07.298Z,97881.75
2022-11-15T04:07:34.509Z,97888.19
2022-11-15T04:10:04.837Z,97878.84
2022-11-15T04:12:37.162Z,97889.41
2022-11-15T04:15:18.506Z,97883.22
2022-11-15T04:17:50.597Z,97892.84
2022-11-15T04:20:47.290Z,97892.84
2022-11-15T04:23:41.056Z,97889.63
2022-11-15T04:26:13.625Z,97886.19
2022-11-15T04:29:00.704Z,97889.13
2022-11-15T04:31:28.137Z,97889.34
2022-11-15T04:33:55.796Z,97895.50
2022-11-15T04:36:41.894Z,97885.16
2022-11-15T04:39:08.997Z,97891.25
2022-11-15T04:41:36.222Z,97884.59
2022-11-15T04:44:03.329Z,97883.06
2022-11-15T04:46:30.476Z,97878.38
2022-11-15T04:48:59.237Z,97869.53
2022-11-15T04:51:26.915Z,97862.38
2022-11-15T04:53:53.950Z,97866.84
2022-11-15T04:56:21.058Z,97863.41
2022-11-15T04:58:51.080Z,97860.13
2022-11-15T05:01:18.379Z,97858.09
2022-11-15T05:04:04.661Z,97857.28
2022-11-15T05:06:31.773Z,97848.66
2022-11-15T05:08:59.230Z,97856.84
2022-11-15T05:11:28.198Z,97847.03
2022-11-15T05:13:55.511Z,97857.41
2022-11-15T05:16:22.604Z,97860.69
2022-11-15T05:18:53.590Z,97854.06
2022-11-15T05:21:21.283Z,97844.50
2022-11-15T05:23:48.399Z,97849.91
2022-11-15T05:26:17.273Z,97853.06
2022-11-15T05:28:44.319Z,97844.94
2022-11-15T05:31:16.263Z,97840.06
2022-11-15T05:33:44.416Z,97845.72
2022-11-15T05:36:20.020Z,97828.75
2022-11-15T05:38:47.763Z,97830.00
2022-11-15T05:41:16.246Z,97836.69
2022-11-15T05:43:44.189Z,97834.25
2022-11-15T05:46:11.267Z,97832.78
2022-11-15T05:48:38.910Z,97826.88
2022-11-15T05:51:06.337Z,97829.31
2022-11-15T05:53:34.317Z,97823.91
2022-11-15T05:56:01.839Z,97825.88
2022-11-15T05:58:28.905Z,97819.72
2022-11-15T06:00:56.158Z,97817.00
2022-11-15T06:03:23.497Z,97818.94
2022-11-15T06:05:50.684Z,97815.28
2022-11-15T06:08:17.726Z,97808.38
2022-11-15T06:10:44.756Z,97821.19
2022-11-15T06:13:11.823Z,97820.69
2022-11-15T06:15:39.008Z,97827.06
2022-11-15T06:18:06.122Z,97828.81
2022-11-15T06:20:33.246Z,97833.50
2022-11-15T06:23:04.347Z,97832.75
2022-11-15T06:25:31.873Z,97817.44
2022-11-15T06:27:59.799Z,97832.22
2022-11-15T06:30:27.711Z,97830.75
2022-11-15T06:33:06.234Z,97827.78
2022-11-15T06:35:35.444Z,97835.41
2022-11-15T06:38:07.472Z,97839.09
2022-11-15T06:40:36.237Z,97835.16
2022-11-15T06:43:04.153Z,97840.06
2022-11-15T06:45:31.535Z,97843.28
2022-11-15T06:47:59.241Z,97839.34
2022-11-15T06:50:26.350Z,97834.16
2022-11-15T06:52:53.670Z,97838.84
2022-11-15T06:55:21.037Z,97839.88
2022-11-15T06:57:50.286Z,97840.13
2022-11-15T07:00:18.970Z,97838.38
2022-11-15T07:02:46.383Z,97839.34
2022-11-15T07:05:14.194Z,97836.88
2022-11-15T07:07:41.307Z,97844.25
2022-11-15T07:10:09.473Z,97831.00
2022-11-15T07:12:36.587Z,97830.75
2022-11-15T07:15:04.158Z,97840.88
2022-11-15T07:17:31.331Z,97831.56
2022-11-15T07:19:58.361Z,97839.22
2022-11-15T07:22:25.441Z,97835.78
2022-11-15T07:24:52.572Z,97836.78
2022-11-15T07:27:19.812Z,97833.38
2022-11-15T07:29:46.987Z,97827.97
2022-11-15T07:32:14.202Z,97831.69
2022-11-15T07:34:41.375Z,97835.88
2022-11-15T07:37:08.695Z,97831.47
2022-11-15T07:39:35.816Z,97840.63
2022-11-15T07:42:21.661Z,97836.94
2022-11-15T07:44:48.756Z,97839.69
2022-11-15T07:47:16.023Z,97838.19
2022-11-15T07:49:43.119Z,97839.44
2022-11-15T07:52:10.205Z,97833.53
2022-11-15T07:54:37.330Z,97840.19
2022-11-15T07:57:07.546Z,97839.00
2022-11-15T07:59:36.057Z,97831.56
2022-11-15T08:02:04.076Z,97832.34
2022-11-15T08:04:31.281Z,97830.31
2022-11-15T08:06:58.515Z,97833.19
2022-11-15T08:09:25.795Z,97834.06
2022-11-15T08:11:52.966Z,97833.44
2022-11-15T08:14:20.023Z,97832.56
2022-11-15T08:16:47.080Z,97822.25
2022-11-15T08:19:14.155Z,97828.59
2022-11-15T08:21:41.255Z,97835.91
2022-11-15T08:24:10.899Z,97827.06
2022-11-15T08:26:38.041Z,97823.94
2022-11-15T08:29:05.074Z,97828.78
2022-11-15T08:31:32.125Z,97830.34
2022-11-15T08:33:59.174Z,97823.47
2022-11-15T08:36:26.215Z,97828.56
2022-11-15T08:38:53.377Z,97824.47
2022-11-15T08:41:35.179Z,97817.31
2022-11-15T08:44:02.366Z,97817.59
2022-11-15T08:46:29.454Z,97818.69
2022-11-15T08:48:56.510Z,97820.03
2022-11-15T08:51:23.927Z,97812.19
2022-11-15T08:53:51.004Z,97810.53
2022-11-15T08:56:18.123Z,97803.41
2022-11-15T08:58:45.291Z,97797.03
2022-11-15T09:01:19.959Z,97786.34
2022-11-15T09:03:47.270Z,97787.59
2022-11-15T09:06:14.574Z,97789.81
2022-11-15T09:08:47.332Z,97784.97
2022-11-15T09:11:17.329Z,97786.97
2022-11-15T09:13:44.425Z,97785.25
2022-11-15T09:16:12.984Z,97788.53
2022-11-15T09:18:40.117Z,97786.53
2022-11-15T09:21:07.241Z,97787.47
2022-11-15T09:23:34.350Z,97779.72
2022-11-15T09:26:03.577Z,97781.47
2022-11-15T09:28:31.742Z,97774.69
2022-11-15T09:31:00.508Z,97772.63
2022-11-15T09:33:28.114Z,97772.75
2022-11-15T09:35:55.279Z,97770.13
2022-11-15T09:38:22.365Z,97762.19
2022-11-15T09:40:53.523Z,97765.34
2022-11-15T09:43:29.626Z,97762.72
2022-11-15T09:46:09.859Z,97765.03
2022-11-15T09:48:46.484Z,97765.13
2022-11-15T09:51:19.648Z,97756.56
2022-11-15T09:56:47.248Z,97750.63
2022-11-15T09:59:22.456Z,97753.97
2022-11-15T10:02:20.969Z,97744.47
2022-11-15T10:04:48.318Z,97754.38
2022-11-15T10:07:21.260Z,97735.16
2022-11-15T10:10:27.614Z,97728.78
2022-11-15T10:12:54.884Z,97732.09
2022-11-15T10:15:23.738Z,97735.03
2022-11-15T10:18:07.155Z,97724.97
2022-11-15T10:20:56.943Z,97725.31
2022-11-15T10:23:24.572Z,97727.69
2022-11-15T10:26:06.427Z,97719.59
2022-11-15T10:28:34.122Z,97714.41
2022-11-15T10:31:02.198Z,97713.84
2022-11-15T10:33:37.199Z,97706.66
2022-11-15T10:36:10.491Z,97698.34
2022-11-15T10:38:49.670Z,97699.97
2022-11-15T10:41:44.248Z,97695.72
2022-11-15T10:44:27.391Z,97691.78
2022-11-15T10:46:57.680Z,97683.69
2022-11-15T10:49:32.491Z,97678.88
2022-11-15T10:52:02.464Z,97686.75
2022-11-15T10:54:34.328Z,97672.03
2022-11-15T10:57:07.501Z,97674.78
2022-11-15T10:59:39.233Z,97674.09
2022-11-15T11:02:36.097Z,97677.75
2022-11-15T11:05:26.276Z,97665.44
2022-11-15T11:08:02.376Z,97665.72
2022-11-15T11:10:50.553Z,97660.94
2022-11-15T11:13:26.718Z,97654.81
2022-11-15T11:16:25.347Z,97652.78
2022-11-15T11:19:13.461Z,97652.94
2022-11-15T11:21:50.619Z,97646.81
2022-11-15T11:24:28.466Z,97644.34
2022-11-15T11:27:08.476Z,97645.06
2022-11-15T11:29:40.070Z,97639.47
2022-11-15T11:32:31.059Z,97640.16
2022-11-15T11:35:14.626Z,97630.00
2022-11-15T11:37:54.578Z,97627.00
2022-11-15T11:40:31.827Z,97623.91
2022-11-15T11:43:22.969Z,97620.72
2022-11-15T11:46:00.917Z,97609.88
2022-11-15T11:48:41.698Z,97615.78
2022-11-15T11:51:16.565Z,97599.50
2022-11-15T11:53:53.201Z,97602.00
2022-11-15T11:56:27.916Z,97596.25
2022-11-15T11:58:59.028Z,97593.66
2022-11-15T12:01:30.497Z,97586.28
2022-11-15T12:04:06.505Z,97578.97
2022-11-15T12:06:46.598Z,97587.00
2022-11-15T12:09:17.306Z,97581.78
2022-11-15T12:11:57.220Z,97578.22
2022-11-15T12:14:39.689Z,97577.97
2022-11-15T12:17:10.204Z,97580.66
2022-11-15T12:19:37.461Z,97576.59
2022-11-15T12:22:21.815Z,97577.91
2022-11-15T12:24:54.545Z,97567.97
2022-11-15T12:27:34.172Z,97567.16
2022-11-15T12:30:05.394Z,97557.75
2022-11-15T12:32:35.809Z,97560.50
2022-11-15T12:35:04.906Z,97554.84
2022-11-15T12:37:44.196Z,97557.28
2022-11-15T12:40:30.921Z,97552.88
2022-11-15T12:43:08.713Z,97547.06
2022-11-15T12:45:38.386Z,97541.19
2022-11-15T12:48:17.909Z,97550.06
2022-11-15T12:50:57.011Z,97547.28
2022-11-15T12:53:24.114Z,97540.47
2022-11-15T12:56:03.008Z,97530.16
2022-11-15T12:58:43.564Z,97526.56
2022-11-15T13:01:11.567Z,97525.59
2022-11-15T13:04:17.357Z,97518.22
2022-11-15T13:06:49.700Z,97522.03
2022-11-15T13:09:34.887Z,97520.00
2022-11-15T13:12:02.828Z,97518.56
2022-11-15T13:14:44.245Z,97521.31
2022-11-15T13:17:20.475Z,97520.22
2022-11-15T13:19:54.895Z,97523.00
2022-11-15T13:22:40.485Z,97522.63
2022-11-15T13:25:16.917Z,97519.72
2022-11-15T13:27:44.082Z,97522.69
2022-11-15T13:30:20.937Z,97514.38
2022-11-15T13:32:49.142Z,97518.03
2022-11-15T13:35:24.472Z,97520.63
2022-11-15T13:37:52.159Z,97516.72
2022-11-15T13:40:31.240Z,97517.31
2022-11-15T13:42:59.190Z,97512.75
2022-11-15T13:45:27.781Z,97510.19
2022-11-15T13:47:57.111Z,97514.22
2022-11-15T13:50:35.231Z,97511.31
2022-11-15T13:53:04.173Z,97506.69
2022-11-15T13:55:33.806Z,97502.88
2022-11-15T13:58:14.325Z,97502.28
2022-11-15T14:00:44.375Z,97502.88
2022-11-15T14:03:26.971Z,97499.78
2022-11-15T14:06:15.843Z,97492.63
2022-11-15T14:09:01.431Z,97486.63
2022-11-15T14:11:28.791Z,97493.31
2022-11-15T14:14:13.070Z,97498.69
2022-11-15T14:16:48.647Z,97484.97
2022-11-15T14:19:21.635Z,97482.16
2022-11-15T14:22:13.385Z,97479.22
2022-11-15T14:24:41.691Z,97472.09
2022-11-15T14:27:27.889Z,97474.38
2022-11-15T14:29:55.226Z,97473.75
2022-11-15T14:32:30.490Z,97474.47
2022-11-15T14:35:00.349Z,97473.59
2022-11-15T14:37:35.598Z,97468.72
2022-11-15T14:40:05.452Z,97471.16
2022-11-15T14:42:33.053Z,97471.00
2022-11-15T14:45:00.160Z,97461.19
2022-11-15T14:47:27.218Z,97457.72
2022-11-15T14:49:54.295Z,97454.78
2022-11-15T14:52:32.532Z,97454.88
2022-11-15T14:55:02.154Z,97442.16
2022-11-15T14:57:29.686Z,97444.09
2022-11-15T14:59:57.854Z,97442.91
2022-11-15T15:02:26.379Z,97432.13
2022-11-15T15:04:54.117Z,97436.66
2022-11-15T15:07:21.287Z,97429.50
2022-11-15T15:09:48.493Z,97431.09
2022-11-15T15:12:21.716Z,97434.72
2022-11-15T15:14:50.277Z,97439.19
2022-11-15T15:17:17.908Z,97434.13
2022-11-15T15:19:45.184Z,97437.88
2022-11-15T15:22:16.864Z,97435.41
2022-11-15T15:24:47.317Z,97423.75
2022-11-15T15:27:14.841Z,97439.16
2022-11-15T15:29:42.021Z,97432.81
2022-11-15T15:32:10.899Z,97435.75
2022-11-15T15:34:38.106Z,97436.16
2022-11-15T15:37:09.350Z,97433.59
2022-11-15T15:39:36.405Z,97426.13
2022-11-15T15:42:04.884Z,97426.69
2022-11-15T15:44:31.976Z,97420.84
2022-11-15T15:46:59.066Z,97423.63
2022-11-15T15:49:26.150Z,97431.50
2022-11-15T15:51:53.343Z,97420.38
2022-11-15T15:54:20.442Z,97417.63
2022-11-15T15:56:50.973Z,97418.56
2022-11-15T15:59:20.761Z,97413.81
2022-11-15T16:01:47.855Z,97407.94
2022-11-15T16:04:15.342Z,97414.34
2022-11-15T16:06:45.952Z,97412.50
2022-11-15T16:09:18.112Z,97407.72
2022-11-15T16:11:46.966Z,97410.84
2022-11-15T16:14:14.170Z,97409.38
2022-11-15T16:16:41.324Z,97404.41
2022-11-15T16:19:09.248Z,97390.34
2022-11-15T16:21:36.285Z,97402.41
2022-11-15T16:24:03.454Z,97401.66
2022-11-15T16:26:31.060Z,97407.16
2022-11-15T16:28:58.686Z,97405.88
2022-11-15T16:31:25.887Z,97389.97
2022-11-15T16:33:52.942Z,97391.41
2022-11-15T16:36:30.419Z,97374.19
2022-11-15T16:38:58.917Z,97378.75
2022-11-15T16:41:26.438Z,97378.53
2022-11-15T16:43:54.086Z,97377.78
2022-11-15T16:46:26.424Z,97381.97
2022-11-15T16:48:54.835Z,97387.59
2022-11-15T16:51:23.078Z,97393.38
2022-11-15T16:53:50.587Z,97399.94
2022-11-15T16:56:27.629Z,97395.72
2022-11-15T16:58:58.429Z,97400.16
2022-11-15T17:01:27.660Z,97402.34
2022-11-15T17:03:55.285Z,97395.41
2022-11-15T17:06:23.048Z,97405.41
2022-11-15T17:08:50.132Z,97394.09
2022-11-15T17:11:19.779Z,97385.69
2022-11-15T17:13:46.989Z,97386.94
2022-11-15T17:16:15.758Z,97391.50
2022-11-15T17:18:46.986Z,97377.22
2022-11-15T17:21:16.758Z,97385.19
2022-11-15T17:23:43.900Z,97384.09
2022-11-15T17:26:28.710Z,97372.13
2022-11-15T17:28:57.566Z,97381.19
2022-11-15T17:31:25.655Z,97368.00
2022-11-15T17:33:52.822Z,97373.53
2022-11-15T17:36:20.043Z,97382.81
2022-11-15T17:38:55.428Z,97375.63
2022-11-15T17:41:26.514Z,97380.75
2022-11-15T17:43:53.713Z,97377.41
2022-11-15T17:46:21.370Z,97371.22
2022-11-15T17:48:49.293Z,97373.41
2022-11-15T17:51:17.707Z,97364.69
2022-11-15T17:53:46.925Z,97362.09
2022-11-15T17:56:16.151Z,97361.63
2022-11-15T17:58:48.406Z,97366.38
2022-11-15T18:01:20.538Z,97361.88
2022-11-15T18:03:48.488Z,97362.13
2022-11-15T18:06:16.416Z,97363.31
2022-11-15T18:08:45.723Z,97364.78
2022-11-15T18:11:17.429Z,97365.63
2022-11-15T18:13:51.927Z,97370.50
2022-11-15T18:16:24.687Z,97370.81
2022-11-15T18:18:52.227Z,97370.19
2022-11-15T18:21:25.283Z,97364.78
2022-11-15T18:23:57.557Z,97364.88
2022-11-15T18:26:27.605Z,97363.75
2022-11-15T18:28:56.920Z,97356.94
2022-11-15T18:31:27.160Z,97360.84
2022-11-15T18:33:54.398Z,97360.69
2022-11-15T18:36:27.204Z,97364.38
2022-11-15T18:39:02.733Z,97368.47
2022-11-15T18:41:31.063Z,97363.44
2022-11-15T18:44:00.565Z,97355.16
2022-11-15T18:46:30.787Z,97353.97
2022-11-15T18:48:59.980Z,97351.34
2022-11-15T18:51:32.286Z,97346.09
2022-11-15T18:54:01.254Z,97346.44
2022-11-15T18:56:30.267Z,97345.25
2022-11-15T18:58:59.260Z,97341.69
2022-11-15T19:01:29.065Z,97340.28
2022-11-15T19:03:57.756Z,97329.72
2022-11-15T19:06:27.023Z,97327.06
2022-11-15T19:08:56.365Z,97336.06
2022-11-15T19:11:31.729Z,97322.56
2022-11-15T19:14:04.115Z,97326.41
2022-11-15T19:16:33.613Z,97327.16
2022-11-15T19:19:06.476Z,97327.44
2022-11-15T19:21:34.208Z,97322.50
2022-11-15T19:24:01.703Z,97317.38
2022-11-15T19:26:29.358Z,97314.28
2022-11-15T19:29:01.100Z,97311.88
2022-11-15T19:31:31.303Z,97308.50
2022-11-15T19:34:00.040Z,97311.75
2022-11-15T19:36:35.378Z,97318.22
2022-11-15T19:39:08.136Z,97313.53
2022-11-15T19:41:37.877Z,97315.59
2022-11-15T19:44:06.139Z,97305.44
2022-11-15T19:46:33.821Z,97296.00
2022-11-15T19:49:01.068Z,97298.72
2022-11-15T19:51:30.348Z,97297.06
2022-11-15T19:53:59.978Z,97295.88
2022-11-15T19:56:27.027Z,97294.91
2022-11-15T19:58:55.448Z,97295.44
2022-11-15T20:01:28.293Z,97290.53
2022-11-15T20:03:57.694Z,97280.22
2022-11-15T20:06:28.617Z,97282.06
2022-11-15T20:08:56.127Z,97291.13
2022-11-15T20:11:23.400Z,97276.91
2022-11-15T20:13:50.601Z,97279.53
2022-11-15T20:16:22.172Z,97281.44
2022-11-15T20:18:50.426Z,97276.22
2022-11-15T20:21:18.048Z,97276.75
2022-11-15T20:23:45.162Z,97282.72
2022-11-15T20:26:15.324Z,97281.97
2022-11-15T20:28:44.337Z,97277.06
2022-11-15T20:31:11.962Z,97277.94
2022-11-15T20:33:39.749Z,97274.66
2022-11-15T20:36:12.238Z,97265.97
2022-11-15T20:38:43.442Z,97265.31
2022-11-15T20:41:14.389Z,97266.34
2022-11-15T20:43:43.761Z,97269.34
2022-11-15T20:46:12.460Z,97257.72
2022-11-15T20:48:40.106Z,97259.72
2022-11-15T20:51:16.255Z,97254.28
2022-11-15T20:53:44.585Z,97252.66
2022-11-15T20:56:14.362Z,97252.25
2022-11-15T20:58:42.130Z,97252.53
2022-11-15T21:01:11.162Z,97255.81
2022-11-15T21:03:38.314Z,97255.63
2022-11-15T21:06:05.926Z,97262.88
2022-11-15T21:08:53.421Z,97256.03
2022-11-15T21:11:39.523Z,97252.06
2022-11-15T21:14:09.600Z,97246.13
2022-11-15T21:16:37.869Z,97246.56
2022-11-15T21:19:05.990Z,97238.72
2022-11-15T21:21:33.380Z,97238.25
2022-11-15T21:24:03.132Z,97234.06
2022-11-15T21:26:30.452Z,97240.31
2022-11-15T21:28:57.515Z,97235.22
2022-11-15T21:31:24.792Z,97241.19
2022-11-15T21:33:51.899Z,97237.50
2022-11-15T21:36:18.932Z,97238.28
2022-11-15T21:38:45.978Z,97231.91
2022-11-15T21:41:13.034Z,97230.44
2022-11-15T21:43:40.080Z,97214.97
2022-11-15T21:46:07.487Z,97213.06
2022-11-15T21:48:35.705Z,97205.44
2022-11-15T21:51:07.679Z,97203.81
2022-11-15T21:53:35.101Z,97195.41
2022-11-15T21:56:02.726Z,97210.97
2022-11-15T21:58:31.092Z,97202.81
2022-11-15T22:01:17.850Z,97201.88
2022-11-15T22:03:45.284Z,97196.34
2022-11-15T22:06:17.424Z,97187.97
2022-11-15T22:08:45.839Z,97181.06
2022-11-15T22:11:13.643Z,97184.81
2022-11-15T22:13:40.894Z,97185.53
2022-11-15T22:16:08.838Z,97186.28
2022-11-15T22:18:36.336Z,97173.66
2022-11-15T22:21:06.082Z,97184.00
2022-11-15T22:23:33.906Z,97182.03
2022-11-15T22:26:01.635Z,97171.44
2022-11-15T22:28:29.533Z,97173.94
2022-11-15T22:30:57.143Z,97167.78
2022-11-15T22:33:27.621Z,97167.28
2022-11-15T22:35:55.344Z,97171.97
2022-11-15T22:38:23.249Z,97160.44
2022-11-15T22:40:50.987Z,97156.03
2022-11-15T22:43:19.511Z,97148.72
2022-11-15T22:45:53.572Z,97146.34
2022-11-15T22:48:22.850Z,97144.69
2022-11-15T22:50:50.887Z,97146.25
2022-11-15T22:53:18.606Z,97136.41
2022-11-15T22:55:50.847Z,97139.72
2022-11-15T22:58:18.167Z,97133.19
2022-11-15T23:00:48.967Z,97124.19
2022-11-15T23:03:16.478Z,97120.34
2022-11-15T23:05:43.590Z,97118.50
2022-11-15T23:08:10.783Z,97114.41
2022-11-15T23:10:57.690Z,97114.41
2022-11-15T23:13:26.758Z,97104.91
2022-11-15T23:16:23.012Z,97107.56
2022-11-15T23:18:51.362Z,97093.44
2022-11-15T23:21:49.701Z,97104.75
2022-11-15T23:24:17.611Z,97097.81
2022-11-15T23:26:46.021Z,97095.63
2022-11-15T23:29:14.824Z,97094.69
2022-11-15T23:32:02.561Z,97094.78
2022-11-15T23:34:31.347Z,97094.69
2022-11-15T23:36:59.246Z,97091.44
2022-11-15T23:39:26.742Z,97083.09
2022-11-15T23:41:53.907Z,97087.78
2022-11-15T23:44:21.164Z,97085.81
2022-11-15T23:46:48.282Z,97085.47
2022-11-15T23:49:15.343Z,97080.56
2022-11-15T23:51:42.439Z,97077.63
2022-11-15T23:54:10.151Z,97082.56
2022-11-15T23:56:37.689Z,97082.00
2022-11-15T23:59:04.984Z,97073.72
